sensor_id;sensor_type;location;lat;lon;timestamp;temperature;humidity
8928;DHT22;4499;48.304;11.902;2023-07-31T00:00:14;14.80;99.90
8928;DHT22;4499;48.304;11.902;2023-07-31T00:02:42;14.80;99.90
8928;DHT22;4499;48.304;11.902;2023-07-31T00:05:11;14.70;99.90
8928;DHT22;4499;48.304;11.902;2023-07-31T00:07:40;14.80;99.90
8928;DHT22;4499;48.304;11.902;2023-07-31T00:10:09;14.70;99.90
8928;DHT22;4499;48.304;11.902;2023-07-31T00:12:38;14.70;99.90
8928;DHT22;4499;48.304;11.902;2023-07-31T00:15:07;14.70;99.90
8928;DHT22;4499;48.304;11.902;2023-07-31T00:17:35;14.70;99.90
8928;DHT22;4499;48.304;11.902;2023-07-31T00:20:04;14.60;99.90
8928;DHT22;4499;48.304;11.902;2023-07-31T00:22:32;14.60;99.90
8928;DHT22;4499;48.304;11.902;2023-07-31T00:25:02;14.60;99.90
8928;DHT22;4499;48.304;11.902;2023-07-31T00:27:31;14.50;99.90
8928;DHT22;4499;48.304;11.902;2023-07-31T00:29:59;14.50;99.90
8928;DHT22;4499;48.304;11.902;2023-07-31T00:32:27;14.40;99.90
8928;DHT22;4499;48.304;11.902;2023-07-31T00:34:55;14.40;99.90
8928;DHT22;4499;48.304;11.902;2023-07-31T00:37:23;14.30;99.90
8928;DHT22;4499;48.304;11.902;2023-07-31T00:39:51;14.30;99.90
8928;DHT22;4499;48.304;11.902;2023-07-31T00:42:20;14.30;99.90
8928;DHT22;4499;48.304;11.902;2023-07-31T00:44:48;14.30;99.90
8928;DHT22;4499;48.304;11.902;2023-07-31T00:47:17;14.30;99.90
8928;DHT22;4499;48.304;11.902;2023-07-31T00:49:45;14.30;99.90
8928;DHT22;4499;48.304;11.902;2023-07-31T00:52:13;14.30;99.90
8928;DHT22;4499;48.304;11.902;2023-07-31T00:54:42;14.30;99.90
8928;DHT22;4499;48.304;11.902;2023-07-31T00:57:10;14.40;99.90
8928;DHT22;4499;48.304;11.902;2023-07-31T00:59:39;14.40;99.90
8928;DHT22;4499;48.304;11.902;2023-07-31T01:02:07;14.40;99.90
8928;DHT22;4499;48.304;11.902;2023-07-31T01:04:36;14.40;99.90
8928;DHT22;4499;48.304;11.902;2023-07-31T01:07:10;14.40;99.90
8928;DHT22;4499;48.304;11.902;2023-07-31T01:09:44;14.30;99.90
8928;DHT22;4499;48.304;11.902;2023-07-31T01:12:14;14.30;99.90
8928;DHT22;4499;48.304;11.902;2023-07-31T01:15:01;14.30;99.90
8928;DHT22;4499;48.304;11.902;2023-07-31T01:17:29;14.30;99.90
8928;DHT22;4499;48.304;11.902;2023-07-31T01:20:01;14.30;99.90
8928;DHT22;4499;48.304;11.902;2023-07-31T01:22:48;14.30;99.90
8928;DHT22;4499;48.304;11.902;2023-07-31T01:28:11;14.40;99.90
8928;DHT22;4499;48.304;11.902;2023-07-31T01:30:44;14.40;99.90
8928;DHT22;4499;48.304;11.902;2023-07-31T01:33:14;14.30;99.90
8928;DHT22;4499;48.304;11.902;2023-07-31T01:35:45;14.30;99.90
8928;DHT22;4499;48.304;11.902;2023-07-31T01:38:14;14.30;99.90
8928;DHT22;4499;48.304;11.902;2023-07-31T01:40:42;14.30;99.90
8928;DHT22;4499;48.304;11.902;2023-07-31T01:43:11;14.30;99.90
8928;DHT22;4499;48.304;11.902;2023-07-31T01:45:39;14.30;99.90
8928;DHT22;4499;48.304;11.902;2023-07-31T01:48:07;14.20;99.90
8928;DHT22;4499;48.304;11.902;2023-07-31T01:50:35;14.20;99.90
8928;DHT22;4499;48.304;11.902;2023-07-31T01:53:04;14.20;99.90
8928;DHT22;4499;48.304;11.902;2023-07-31T01:55:32;14.20;99.90
8928;DHT22;4499;48.304;11.902;2023-07-31T01:58:00;14.20;99.90
8928;DHT22;4499;48.304;11.902;2023-07-31T02:00:29;14.20;99.90
8928;DHT22;4499;48.304;11.902;2023-07-31T02:02:59;14.20;99.90
8928;DHT22;4499;48.304;11.902;2023-07-31T02:05:27;14.20;99.90
8928;DHT22;4499;48.304;11.902;2023-07-31T02:07:55;14.20;99.90
8928;DHT22;4499;48.304;11.902;2023-07-31T02:10:24;14.10;99.90
8928;DHT22;4499;48.304;11.902;2023-07-31T02:12:52;14.10;99.90
8928;DHT22;4499;48.304;11.902;2023-07-31T02:15:20;14.10;99.90
8928;DHT22;4499;48.304;11.902;2023-07-31T02:17:49;14.00;99.90
8928;DHT22;4499;48.304;11.902;2023-07-31T02:20:18;14.00;99.90
8928;DHT22;4499;48.304;11.902;2023-07-31T02:22:46;13.90;99.90
8928;DHT22;4499;48.304;11.902;2023-07-31T02:25:14;13.80;99.90
8928;DHT22;4499;48.304;11.902;2023-07-31T02:27:42;13.80;99.90
8928;DHT22;4499;48.304;11.902;2023-07-31T02:30:11;13.70;99.90
8928;DHT22;4499;48.304;11.902;2023-07-31T02:32:39;13.70;99.90
8928;DHT22;4499;48.304;11.902;2023-07-31T02:35:09;13.70;99.90
8928;DHT22;4499;48.304;11.902;2023-07-31T02:37:38;13.60;99.90
8928;DHT22;4499;48.304;11.902;2023-07-31T02:40:07;13.60;99.90
8928;DHT22;4499;48.304;11.902;2023-07-31T02:42:35;13.70;99.90
8928;DHT22;4499;48.304;11.902;2023-07-31T02:45:03;13.70;99.90
8928;DHT22;4499;48.304;11.902;2023-07-31T02:47:32;13.70;99.90
8928;DHT22;4499;48.304;11.902;2023-07-31T02:50:00;13.60;99.90
8928;DHT22;4499;48.304;11.902;2023-07-31T02:52:29;13.70;99.90
8928;DHT22;4499;48.304;11.902;2023-07-31T02:54:58;13.70;99.90
8928;DHT22;4499;48.304;11.902;2023-07-31T02:57:26;13.70;99.90
8928;DHT22;4499;48.304;11.902;2023-07-31T02:59:54;13.70;99.90
8928;DHT22;4499;48.304;11.902;2023-07-31T03:02:22;13.80;99.90
8928;DHT22;4499;48.304;11.902;2023-07-31T03:04:50;13.70;99.90
8928;DHT22;4499;48.304;11.902;2023-07-31T03:07:18;13.70;99.90
8928;DHT22;4499;48.304;11.902;2023-07-31T03:09:48;13.70;99.90
8928;DHT22;4499;48.304;11.902;2023-07-31T03:12:16;13.70;99.90
8928;DHT22;4499;48.304;11.902;2023-07-31T03:14:44;13.60;99.90
8928;DHT22;4499;48.304;11.902;2023-07-31T03:17:12;13.60;99.90
8928;DHT22;4499;48.304;11.902;2023-07-31T03:19:40;13.60;99.90
8928;DHT22;4499;48.304;11.902;2023-07-31T03:22:08;13.60;99.90
8928;DHT22;4499;48.304;11.902;2023-07-31T03:24:36;13.60;99.90
8928;DHT22;4499;48.304;11.902;2023-07-31T03:27:06;13.50;99.90
8928;DHT22;4499;48.304;11.902;2023-07-31T03:29:34;13.50;99.90
8928;DHT22;4499;48.304;11.902;2023-07-31T03:32:02;13.50;99.90
8928;DHT22;4499;48.304;11.902;2023-07-31T03:34:30;13.50;99.90
8928;DHT22;4499;48.304;11.902;2023-07-31T03:36:59;13.40;99.90
8928;DHT22;4499;48.304;11.902;2023-07-31T03:39:27;13.40;99.90
8928;DHT22;4499;48.304;11.902;2023-07-31T03:41:55;13.40;99.90
8928;DHT22;4499;48.304;11.902;2023-07-31T03:44:25;13.40;99.90
8928;DHT22;4499;48.304;11.902;2023-07-31T03:46:53;13.40;99.90
8928;DHT22;4499;48.304;11.902;2023-07-31T03:49:21;13.50;99.90
8928;DHT22;4499;48.304;11.902;2023-07-31T03:51:49;13.50;99.90
8928;DHT22;4499;48.304;11.902;2023-07-31T03:54:18;13.60;99.90
8928;DHT22;4499;48.304;11.902;2023-07-31T03:56:46;13.60;99.90
8928;DHT22;4499;48.304;11.902;2023-07-31T03:59:14;13.60;99.90
8928;DHT22;4499;48.304;11.902;2023-07-31T04:01:43;13.70;99.90
8928;DHT22;4499;48.304;11.902;2023-07-31T04:04:11;13.80;99.90
8928;DHT22;4499;48.304;11.902;2023-07-31T04:06:39;13.80;99.90
8928;DHT22;4499;48.304;11.902;2023-07-31T04:09:07;13.90;99.90
8928;DHT22;4499;48.304;11.902;2023-07-31T04:11:35;13.90;99.90
8928;DHT22;4499;48.304;11.902;2023-07-31T04:14:03;14.00;99.90
8928;DHT22;4499;48.304;11.902;2023-07-31T04:16:32;14.00;99.90
8928;DHT22;4499;48.304;11.902;2023-07-31T04:19:01;14.10;99.90
8928;DHT22;4499;48.304;11.902;2023-07-31T04:21:30;14.20;99.90
8928;DHT22;4499;48.304;11.902;2023-07-31T04:23:58;14.20;99.90
8928;DHT22;4499;48.304;11.902;2023-07-31T04:26:26;14.30;99.90
8928;DHT22;4499;48.304;11.902;2023-07-31T04:28:54;14.40;99.90
8928;DHT22;4499;48.304;11.902;2023-07-31T04:31:22;14.50;99.90
8928;DHT22;4499;48.304;11.902;2023-07-31T04:33:50;14.50;99.90
8928;DHT22;4499;48.304;11.902;2023-07-31T04:36:20;14.60;99.90
8928;DHT22;4499;48.304;11.902;2023-07-31T04:38:48;14.70;99.90
8928;DHT22;4499;48.304;11.902;2023-07-31T04:41:16;14.80;99.90
8928;DHT22;4499;48.304;11.902;2023-07-31T04:43:44;14.80;99.90
8928;DHT22;4499;48.304;11.902;2023-07-31T04:46:12;14.90;99.90
8928;DHT22;4499;48.304;11.902;2023-07-31T04:48:40;15.00;99.90
8928;DHT22;4499;48.304;11.902;2023-07-31T04:51:08;15.00;99.90
8928;DHT22;4499;48.304;11.902;2023-07-31T04:53:38;15.10;99.90
8928;DHT22;4499;48.304;11.902;2023-07-31T04:56:06;15.20;99.90
8928;DHT22;4499;48.304;11.902;2023-07-31T04:58:34;15.30;99.90
8928;DHT22;4499;48.304;11.902;2023-07-31T05:01:02;15.40;99.90
8928;DHT22;4499;48.304;11.902;2023-07-31T05:03:30;15.40;99.90
8928;DHT22;4499;48.304;11.902;2023-07-31T05:05:58;15.50;99.90
8928;DHT22;4499;48.304;11.902;2023-07-31T05:08:26;15.50;99.90
8928;DHT22;4499;48.304;11.902;2023-07-31T05:10:56;15.60;99.90
8928;DHT22;4499;48.304;11.902;2023-07-31T05:13:24;15.50;99.90
8928;DHT22;4499;48.304;11.902;2023-07-31T05:15:52;15.50;99.90
8928;DHT22;4499;48.304;11.902;2023-07-31T05:18:20;15.50;99.90
8928;DHT22;4499;48.304;11.902;2023-07-31T05:20:48;15.40;99.90
8928;DHT22;4499;48.304;11.902;2023-07-31T05:23:17;15.40;99.90
8928;DHT22;4499;48.304;11.902;2023-07-31T05:25:45;15.40;99.90
8928;DHT22;4499;48.304;11.902;2023-07-31T05:28:14;15.40;99.90
8928;DHT22;4499;48.304;11.902;2023-07-31T05:30:42;15.40;99.90
8928;DHT22;4499;48.304;11.902;2023-07-31T05:33:10;15.50;99.90
8928;DHT22;4499;48.304;11.902;2023-07-31T05:35:40;15.60;99.90
8928;DHT22;4499;48.304;11.902;2023-07-31T05:38:08;15.80;99.90
8928;DHT22;4499;48.304;11.902;2023-07-31T05:40:37;15.90;99.90
8928;DHT22;4499;48.304;11.902;2023-07-31T05:43:05;16.10;99.90
8928;DHT22;4499;48.304;11.902;2023-07-31T05:45:36;16.20;99.90
8928;DHT22;4499;48.304;11.902;2023-07-31T05:48:04;16.40;99.90
8928;DHT22;4499;48.304;11.902;2023-07-31T05:50:32;16.70;99.90
8928;DHT22;4499;48.304;11.902;2023-07-31T05:53:01;16.90;99.90
8928;DHT22;4499;48.304;11.902;2023-07-31T05:55:29;17.10;99.90
8928;DHT22;4499;48.304;11.902;2023-07-31T05:57:57;17.40;99.90
8928;DHT22;4499;48.304;11.902;2023-07-31T06:00:27;17.70;99.90
8928;DHT22;4499;48.304;11.902;2023-07-31T06:02:56;18.30;99.90
8928;DHT22;4499;48.304;11.902;2023-07-31T06:05:25;19.10;99.90
8928;DHT22;4499;48.304;11.902;2023-07-31T06:07:55;19.60;99.90
8928;DHT22;4499;48.304;11.902;2023-07-31T06:10:23;20.00;99.90
8928;DHT22;4499;48.304;11.902;2023-07-31T06:12:51;20.30;99.90
8928;DHT22;4499;48.304;11.902;2023-07-31T06:15:20;20.30;99.90
8928;DHT22;4499;48.304;11.902;2023-07-31T06:17:48;20.20;99.90
8928;DHT22;4499;48.304;11.902;2023-07-31T06:20:17;20.00;99.90
8928;DHT22;4499;48.304;11.902;2023-07-31T06:22:45;20.00;99.90
8928;DHT22;4499;48.304;11.902;2023-07-31T06:25:14;19.70;99.90
8928;DHT22;4499;48.304;11.902;2023-07-31T06:27:42;19.80;99.90
8928;DHT22;4499;48.304;11.902;2023-07-31T06:30:11;19.80;99.90
8928;DHT22;4499;48.304;11.902;2023-07-31T06:32:39;19.80;99.90
8928;DHT22;4499;48.304;11.902;2023-07-31T06:35:08;19.80;99.90
8928;DHT22;4499;48.304;11.902;2023-07-31T06:37:37;19.80;99.90
8928;DHT22;4499;48.304;11.902;2023-07-31T06:40:08;19.90;99.90
8928;DHT22;4499;48.304;11.902;2023-07-31T06:42:36;19.90;99.90
8928;DHT22;4499;48.304;11.902;2023-07-31T06:45:05;19.80;99.90
8928;DHT22;4499;48.304;11.902;2023-07-31T06:47:34;19.90;99.90
8928;DHT22;4499;48.304;11.902;2023-07-31T06:50:02;19.90;99.90
8928;DHT22;4499;48.304;11.902;2023-07-31T06:52:30;19.80;99.90
8928;DHT22;4499;48.304;11.902;2023-07-31T06:55:08;19.80;99.90
8928;DHT22;4499;48.304;11.902;2023-07-31T06:57:44;19.70;99.90
8928;DHT22;4499;48.304;11.902;2023-07-31T07:00:13;19.90;99.90
8928;DHT22;4499;48.304;11.902;2023-07-31T07:02:41;20.00;99.90
8928;DHT22;4499;48.304;11.902;2023-07-31T07:05:09;20.10;99.90
8928;DHT22;4499;48.304;11.902;2023-07-31T07:07:40;20.20;99.90
8928;DHT22;4499;48.304;11.902;2023-07-31T07:10:10;20.30;99.90
8928;DHT22;4499;48.304;11.902;2023-07-31T07:12:39;20.40;99.90
8928;DHT22;4499;48.304;11.902;2023-07-31T07:15:08;20.50;99.90
8928;DHT22;4499;48.304;11.902;2023-07-31T07:17:37;20.70;99.90
8928;DHT22;4499;48.304;11.902;2023-07-31T07:20:06;20.70;99.90
8928;DHT22;4499;48.304;11.902;2023-07-31T07:22:35;21.30;99.90
8928;DHT22;4499;48.304;11.902;2023-07-31T07:25:04;21.50;99.90
8928;DHT22;4499;48.304;11.902;2023-07-31T07:27:35;21.80;99.90
8928;DHT22;4499;48.304;11.902;2023-07-31T07:30:04;22.20;99.90
8928;DHT22;4499;48.304;11.902;2023-07-31T07:32:32;22.20;99.90
8928;DHT22;4499;48.304;11.902;2023-07-31T07:35:00;21.90;99.90
8928;DHT22;4499;48.304;11.902;2023-07-31T07:37:29;21.70;99.90
8928;DHT22;4499;48.304;11.902;2023-07-31T07:39:59;22.40;99.90
8928;DHT22;4499;48.304;11.902;2023-07-31T07:42:27;22.90;99.40
8928;DHT22;4499;48.304;11.902;2023-07-31T07:44:57;23.60;99.00
8928;DHT22;4499;48.304;11.902;2023-07-31T07:47:26;23.90;97.30
8928;DHT22;4499;48.304;11.902;2023-07-31T07:49:55;23.90;96.80
8928;DHT22;4499;48.304;11.902;2023-07-31T07:52:23;23.80;96.40
8928;DHT22;4499;48.304;11.902;2023-07-31T07:54:51;23.30;96.80
8928;DHT22;4499;48.304;11.902;2023-07-31T07:57:20;22.90;98.00
8928;DHT22;4499;48.304;11.902;2023-07-31T07:59:49;23.40;97.20
8928;DHT22;4499;48.304;11.902;2023-07-31T08:02:18;24.40;94.30
8928;DHT22;4499;48.304;11.902;2023-07-31T08:04:46;25.40;93.00
8928;DHT22;4499;48.304;11.902;2023-07-31T08:07:15;26.80;84.00
8928;DHT22;4499;48.304;11.902;2023-07-31T08:09:43;27.10;81.00
8928;DHT22;4499;48.304;11.902;2023-07-31T08:12:12;27.40;74.20
8928;DHT22;4499;48.304;11.902;2023-07-31T08:14:41;28.00;70.60
8928;DHT22;4499;48.304;11.902;2023-07-31T08:17:09;28.00;68.90
8928;DHT22;4499;48.304;11.902;2023-07-31T08:19:38;27.70;69.60
8928;DHT22;4499;48.304;11.902;2023-07-31T08:22:07;28.50;65.00
8928;DHT22;4499;48.304;11.902;2023-07-31T08:24:35;27.90;63.50
8928;DHT22;4499;48.304;11.902;2023-07-31T08:27:03;28.20;64.20
8928;DHT22;4499;48.304;11.902;2023-07-31T08:29:31;27.90;67.00
8928;DHT22;4499;48.304;11.902;2023-07-31T08:31:59;27.50;63.80
8928;DHT22;4499;48.304;11.902;2023-07-31T08:34:27;27.00;64.20
8928;DHT22;4499;48.304;11.902;2023-07-31T08:36:57;27.10;68.90
8928;DHT22;4499;48.304;11.902;2023-07-31T08:39:26;27.10;68.00
8928;DHT22;4499;48.304;11.902;2023-07-31T08:41:58;27.30;67.30
8928;DHT22;4499;48.304;11.902;2023-07-31T08:44:26;27.60;70.20
8928;DHT22;4499;48.304;11.902;2023-07-31T08:46:55;27.90;64.20
8928;DHT22;4499;48.304;11.902;2023-07-31T08:49:23;27.90;65.50
8928;DHT22;4499;48.304;11.902;2023-07-31T08:51:52;27.80;62.50
8928;DHT22;4499;48.304;11.902;2023-07-31T08:54:23;26.90;65.00
8928;DHT22;4499;48.304;11.902;2023-07-31T08:56:53;26.40;69.50
8928;DHT22;4499;48.304;11.902;2023-07-31T08:59:22;25.60;70.40
8928;DHT22;4499;48.304;11.902;2023-07-31T09:01:53;25.20;73.50
8928;DHT22;4499;48.304;11.902;2023-07-31T09:04:23;24.30;76.90
8928;DHT22;4499;48.304;11.902;2023-07-31T09:06:57;23.90;81.80
8928;DHT22;4499;48.304;11.902;2023-07-31T09:09:28;23.30;88.20
8928;DHT22;4499;48.304;11.902;2023-07-31T09:11:57;22.90;89.30
8928;DHT22;4499;48.304;11.902;2023-07-31T09:14:26;22.80;91.20
8928;DHT22;4499;48.304;11.902;2023-07-31T09:16:55;22.60;91.40
8928;DHT22;4499;48.304;11.902;2023-07-31T09:19:26;22.50;92.50
8928;DHT22;4499;48.304;11.902;2023-07-31T09:21:54;22.20;92.40
8928;DHT22;4499;48.304;11.902;2023-07-31T09:24:28;22.00;93.20
8928;DHT22;4499;48.304;11.902;2023-07-31T09:26:59;21.80;93.30
8928;DHT22;4499;48.304;11.902;2023-07-31T09:29:28;21.60;95.10
8928;DHT22;4499;48.304;11.902;2023-07-31T09:31:57;21.40;96.00
8928;DHT22;4499;48.304;11.902;2023-07-31T09:34:29;21.20;97.20
8928;DHT22;4499;48.304;11.902;2023-07-31T09:37:01;21.20;96.10
8928;DHT22;4499;48.304;11.902;2023-07-31T09:39:31;21.40;94.10
8928;DHT22;4499;48.304;11.902;2023-07-31T09:41:59;21.70;93.80
8928;DHT22;4499;48.304;11.902;2023-07-31T09:44:39;21.90;93.40
8928;DHT22;4499;48.304;11.902;2023-07-31T09:47:21;22.00;94.00
8928;DHT22;4499;48.304;11.902;2023-07-31T09:49:51;22.10;93.10
8928;DHT22;4499;48.304;11.902;2023-07-31T09:52:19;22.20;92.40
8928;DHT22;4499;48.304;11.902;2023-07-31T09:54:48;22.30;93.10
8928;DHT22;4499;48.304;11.902;2023-07-31T09:57:17;22.10;92.10
8928;DHT22;4499;48.304;11.902;2023-07-31T09:59:47;22.00;92.60
8928;DHT22;4499;48.304;11.902;2023-07-31T10:02:21;22.20;93.60
8928;DHT22;4499;48.304;11.902;2023-07-31T10:04:50;22.80;92.90
8928;DHT22;4499;48.304;11.902;2023-07-31T10:07:20;23.50;92.90
8928;DHT22;4499;48.304;11.902;2023-07-31T10:09:51;24.60;87.70
8928;DHT22;4499;48.304;11.902;2023-07-31T10:12:23;25.30;87.10
8928;DHT22;4499;48.304;11.902;2023-07-31T10:14:54;25.60;79.00
8928;DHT22;4499;48.304;11.902;2023-07-31T10:17:23;26.10;78.70
8928;DHT22;4499;48.304;11.902;2023-07-31T10:19:51;26.80;76.90
8928;DHT22;4499;48.304;11.902;2023-07-31T10:22:21;27.00;70.80
8928;DHT22;4499;48.304;11.902;2023-07-31T10:24:52;27.30;74.00
8928;DHT22;4499;48.304;11.902;2023-07-31T10:27:22;27.60;68.70
8928;DHT22;4499;48.304;11.902;2023-07-31T10:29:51;27.80;72.40
8928;DHT22;4499;48.304;11.902;2023-07-31T10:32:21;28.70;67.10
8928;DHT22;4499;48.304;11.902;2023-07-31T10:34:50;29.30;61.50
8928;DHT22;4499;48.304;11.902;2023-07-31T10:37:23;28.60;58.80
8928;DHT22;4499;48.304;11.902;2023-07-31T10:39:58;27.90;63.30
8928;DHT22;4499;48.304;11.902;2023-07-31T10:42:29;26.90;63.30
8928;DHT22;4499;48.304;11.902;2023-07-31T10:44:58;26.80;68.50
8928;DHT22;4499;48.304;11.902;2023-07-31T10:47:26;27.50;66.00
8928;DHT22;4499;48.304;11.902;2023-07-31T10:50:19;27.90;61.70
8928;DHT22;4499;48.304;11.902;2023-07-31T10:52:48;28.10;63.20
8928;DHT22;4499;48.304;11.902;2023-07-31T10:55:28;28.50;59.60
8928;DHT22;4499;48.304;11.902;2023-07-31T10:57:58;28.60;59.30
8928;DHT22;4499;48.304;11.902;2023-07-31T11:00:32;28.60;59.50
8928;DHT22;4499;48.304;11.902;2023-07-31T11:03:02;28.80;57.10
8928;DHT22;4499;48.304;11.902;2023-07-31T11:05:51;28.80;56.50
8928;DHT22;4499;48.304;11.902;2023-07-31T11:08:22;29.00;58.20
8928;DHT22;4499;48.304;11.902;2023-07-31T11:11:05;29.50;58.50
8928;DHT22;4499;48.304;11.902;2023-07-31T11:13:41;29.50;58.40
8928;DHT22;4499;48.304;11.902;2023-07-31T11:16:10;29.80;55.80
8928;DHT22;4499;48.304;11.902;2023-07-31T11:18:39;29.50;54.90
8928;DHT22;4499;48.304;11.902;2023-07-31T11:21:08;29.00;55.50
8928;DHT22;4499;48.304;11.902;2023-07-31T11:23:37;29.00;56.60
8928;DHT22;4499;48.304;11.902;2023-07-31T11:26:07;28.80;55.90
8928;DHT22;4499;48.304;11.902;2023-07-31T11:28:35;28.20;55.50
8928;DHT22;4499;48.304;11.902;2023-07-31T11:31:05;28.20;57.20
8928;DHT22;4499;48.304;11.902;2023-07-31T11:33:36;28.10;58.00
8928;DHT22;4499;48.304;11.902;2023-07-31T11:36:05;28.20;55.10
8928;DHT22;4499;48.304;11.902;2023-07-31T11:38:34;27.50;61.00
8928;DHT22;4499;48.304;11.902;2023-07-31T11:41:03;27.50;58.80
8928;DHT22;4499;48.304;11.902;2023-07-31T11:43:33;27.30;59.50
8928;DHT22;4499;48.304;11.902;2023-07-31T11:46:03;27.70;58.90
8928;DHT22;4499;48.304;11.902;2023-07-31T11:48:35;27.70;57.20
8928;DHT22;4499;48.304;11.902;2023-07-31T11:51:04;28.10;58.10
8928;DHT22;4499;48.304;11.902;2023-07-31T11:53:36;28.00;58.10
8928;DHT22;4499;48.304;11.902;2023-07-31T11:56:06;27.70;59.20
8928;DHT22;4499;48.304;11.902;2023-07-31T11:58:37;27.40;57.30
8928;DHT22;4499;48.304;11.902;2023-07-31T12:01:07;27.50;55.50
8928;DHT22;4499;48.304;11.902;2023-07-31T12:03:36;27.30;56.90
8928;DHT22;4499;48.304;11.902;2023-07-31T12:06:04;27.30;57.70
8928;DHT22;4499;48.304;11.902;2023-07-31T12:08:33;27.10;56.60
8928;DHT22;4499;48.304;11.902;2023-07-31T12:11:03;27.20;60.60
8928;DHT22;4499;48.304;11.902;2023-07-31T12:13:32;27.20;58.00
8928;DHT22;4499;48.304;11.902;2023-07-31T12:16:04;27.10;57.90
8928;DHT22;4499;48.304;11.902;2023-07-31T12:18:34;27.10;58.00
8928;DHT22;4499;48.304;11.902;2023-07-31T12:21:05;27.10;58.80
8928;DHT22;4499;48.304;11.902;2023-07-31T12:23:36;27.20;62.50
8928;DHT22;4499;48.304;11.902;2023-07-31T12:26:06;27.20;58.00
8928;DHT22;4499;48.304;11.902;2023-07-31T12:28:40;27.40;56.50
8928;DHT22;4499;48.304;11.902;2023-07-31T12:31:11;26.90;61.20
8928;DHT22;4499;48.304;11.902;2023-07-31T12:33:40;26.60;59.20
8928;DHT22;4499;48.304;11.902;2023-07-31T12:36:10;26.60;60.90
8928;DHT22;4499;48.304;11.902;2023-07-31T12:38:38;26.60;60.70
8928;DHT22;4499;48.304;11.902;2023-07-31T12:41:06;26.60;58.20
8928;DHT22;4499;48.304;11.902;2023-07-31T12:43:35;26.90;58.90
8928;DHT22;4499;48.304;11.902;2023-07-31T12:46:03;27.20;59.30
8928;DHT22;4499;48.304;11.902;2023-07-31T12:48:34;27.60;58.40
8928;DHT22;4499;48.304;11.902;2023-07-31T12:51:02;27.30;57.80
8928;DHT22;4499;48.304;11.902;2023-07-31T12:53:30;27.10;57.00
8928;DHT22;4499;48.304;11.902;2023-07-31T12:55:58;27.00;53.80
8928;DHT22;4499;48.304;11.902;2023-07-31T12:58:27;27.30;54.20
8928;DHT22;4499;48.304;11.902;2023-07-31T13:00:55;27.20;54.10
8928;DHT22;4499;48.304;11.902;2023-07-31T13:03:23;26.70;58.40
8928;DHT22;4499;48.304;11.902;2023-07-31T13:05:53;26.40;61.90
8928;DHT22;4499;48.304;11.902;2023-07-31T13:08:21;26.40;57.50
8928;DHT22;4499;48.304;11.902;2023-07-31T13:10:49;26.10;56.40
8928;DHT22;4499;48.304;11.902;2023-07-31T13:13:18;26.20;58.10
8928;DHT22;4499;48.304;11.902;2023-07-31T13:15:46;26.20;59.70
8928;DHT22;4499;48.304;11.902;2023-07-31T13:18:14;26.90;58.90
8928;DHT22;4499;48.304;11.902;2023-07-31T13:20:42;27.20;57.30
8928;DHT22;4499;48.304;11.902;2023-07-31T13:23:11;27.00;56.80
8928;DHT22;4499;48.304;11.902;2023-07-31T13:25:39;26.80;60.10
8928;DHT22;4499;48.304;11.902;2023-07-31T13:28:08;27.00;60.90
8928;DHT22;4499;48.304;11.902;2023-07-31T13:30:36;27.30;60.50
8928;DHT22;4499;48.304;11.902;2023-07-31T13:33:04;27.50;61.00
8928;DHT22;4499;48.304;11.902;2023-07-31T13:35:40;27.90;56.40
8928;DHT22;4499;48.304;11.902;2023-07-31T13:38:08;27.70;54.90
8928;DHT22;4499;48.304;11.902;2023-07-31T13:40:38;27.60;56.20
8928;DHT22;4499;48.304;11.902;2023-07-31T13:43:06;27.20;58.00
8928;DHT22;4499;48.304;11.902;2023-07-31T13:45:34;26.80;58.90
8928;DHT22;4499;48.304;11.902;2023-07-31T13:48:02;26.40;58.60
8928;DHT22;4499;48.304;11.902;2023-07-31T13:50:31;26.50;61.80
8928;DHT22;4499;48.304;11.902;2023-07-31T13:52:59;26.90;61.30
8928;DHT22;4499;48.304;11.902;2023-07-31T13:55:27;27.30;60.10
8928;DHT22;4499;48.304;11.902;2023-07-31T13:57:57;27.60;59.60
8928;DHT22;4499;48.304;11.902;2023-07-31T14:00:25;27.90;59.00
8928;DHT22;4499;48.304;11.902;2023-07-31T14:02:55;27.90;57.30
8928;DHT22;4499;48.304;11.902;2023-07-31T14:05:24;28.00;54.80
8928;DHT22;4499;48.304;11.902;2023-07-31T14:07:52;27.90;55.50
8928;DHT22;4499;48.304;11.902;2023-07-31T14:10:20;27.60;57.60
8928;DHT22;4499;48.304;11.902;2023-07-31T14:12:48;27.30;55.00
8928;DHT22;4499;48.304;11.902;2023-07-31T14:15:17;26.80;57.90
8928;DHT22;4499;48.304;11.902;2023-07-31T14:17:45;26.60;57.60
8928;DHT22;4499;48.304;11.902;2023-07-31T14:20:15;26.30;57.20
8928;DHT22;4499;48.304;11.902;2023-07-31T14:22:43;26.50;57.30
8928;DHT22;4499;48.304;11.902;2023-07-31T14:25:11;26.60;60.90
8928;DHT22;4499;48.304;11.902;2023-07-31T14:27:40;26.60;57.20
8928;DHT22;4499;48.304;11.902;2023-07-31T14:30:09;26.70;58.10
8928;DHT22;4499;48.304;11.902;2023-07-31T14:32:38;26.60;59.40
8928;DHT22;4499;48.304;11.902;2023-07-31T14:35:07;26.30;58.60
8928;DHT22;4499;48.304;11.902;2023-07-31T14:37:37;26.00;60.20
8928;DHT22;4499;48.304;11.902;2023-07-31T14:40:06;25.70;61.00
8928;DHT22;4499;48.304;11.902;2023-07-31T14:42:34;25.40;61.10
8928;DHT22;4499;48.304;11.902;2023-07-31T14:45:03;25.10;62.20
8928;DHT22;4499;48.304;11.902;2023-07-31T14:47:31;25.10;62.80
8928;DHT22;4499;48.304;11.902;2023-07-31T14:50:01;25.00;61.90
8928;DHT22;4499;48.304;11.902;2023-07-31T14:52:30;24.90;65.30
8928;DHT22;4499;48.304;11.902;2023-07-31T14:54:58;24.90;63.30
8928;DHT22;4499;48.304;11.902;2023-07-31T14:57:26;24.80;65.30
8928;DHT22;4499;48.304;11.902;2023-07-31T14:59:54;24.80;63.40
8928;DHT22;4499;48.304;11.902;2023-07-31T15:02:22;24.80;66.20
8928;DHT22;4499;48.304;11.902;2023-07-31T15:04:50;24.70;67.20
8928;DHT22;4499;48.304;11.902;2023-07-31T15:07:20;24.60;66.90
8928;DHT22;4499;48.304;11.902;2023-07-31T15:09:48;24.40;63.60
8928;DHT22;4499;48.304;11.902;2023-07-31T15:12:16;24.30;66.00
8928;DHT22;4499;48.304;11.902;2023-07-31T15:14:44;24.20;65.60
8928;DHT22;4499;48.304;11.902;2023-07-31T15:17:12;24.20;67.50
8928;DHT22;4499;48.304;11.902;2023-07-31T15:19:41;24.00;68.60
8928;DHT22;4499;48.304;11.902;2023-07-31T15:22:09;23.90;68.20
8928;DHT22;4499;48.304;11.902;2023-07-31T15:24:38;23.80;68.60
8928;DHT22;4499;48.304;11.902;2023-07-31T15:27:07;23.70;71.00
8928;DHT22;4499;48.304;11.902;2023-07-31T15:29:35;23.70;69.00
8928;DHT22;4499;48.304;11.902;2023-07-31T15:32:05;23.80;69.30
8928;DHT22;4499;48.304;11.902;2023-07-31T15:34:34;23.80;68.20
8928;DHT22;4499;48.304;11.902;2023-07-31T15:37:03;23.80;69.30
8928;DHT22;4499;48.304;11.902;2023-07-31T15:39:31;23.60;71.00
8928;DHT22;4499;48.304;11.902;2023-07-31T15:42:01;23.60;71.80
8928;DHT22;4499;48.304;11.902;2023-07-31T15:44:29;23.60;73.00
8928;DHT22;4499;48.304;11.902;2023-07-31T15:46:57;23.60;72.10
8928;DHT22;4499;48.304;11.902;2023-07-31T15:49:25;23.50;73.80
8928;DHT22;4499;48.304;11.902;2023-07-31T15:51:54;23.40;73.20
8928;DHT22;4499;48.304;11.902;2023-07-31T15:54:22;23.30;77.20
8928;DHT22;4499;48.304;11.902;2023-07-31T15:56:50;23.00;77.30
8928;DHT22;4499;48.304;11.902;2023-07-31T15:59:19;22.90;79.80